sensor_id;sensor_type;location;lat;lon;timestamp;P1;durP1;ratioP1;P2;durP2;ratioP2
24421;SDS011;12600;53.326;-6.298;2022-08-01T00:01:51;39.97;;;37.90;;
24421;SDS011;12600;53.326;-6.298;2022-08-01T00:04:20;35.15;;;33.30;;
24421;SDS011;12600;53.326;-6.298;2022-08-01T00:06:51;43.00;;;40.75;;
24421;SDS011;12600;53.326;-6.298;2022-08-01T00:09:20;38.60;;;36.50;;
24421;SDS011;12600;53.326;-6.298;2022-08-01T00:11:50;34.13;;;32.35;;
24421;SDS011;12600;53.326;-6.298;2022-08-01T00:14:26;33.25;;;31.40;;
24421;SDS011;12600;53.326;-6.298;2022-08-01T00:16:58;32.00;;;30.35;;
24421;SDS011;12600;53.326;-6.298;2022-08-01T00:19:33;37.78;;;35.92;;
24421;SDS011;12600;53.326;-6.298;2022-08-01T00:22:04;33.25;;;31.52;;
24421;SDS011;12600;53.326;-6.298;2022-08-01T00:24:34;33.75;;;32.03;;
24421;SDS011;12600;53.326;-6.298;2022-08-01T00:27:03;37.22;;;34.97;;
24421;SDS011;12600;53.326;-6.298;2022-08-01T00:29:32;35.45;;;33.47;;
24421;SDS011;12600;53.326;-6.298;2022-08-01T00:32:22;34.25;;;32.33;;
24421;SDS011;12600;53.326;-6.298;2022-08-01T00:34:51;34.42;;;32.55;;
24421;SDS011;12600;53.326;-6.298;2022-08-01T00:37:22;35.88;;;33.83;;
24421;SDS011;12600;53.326;-6.298;2022-08-01T00:39:51;34.80;;;32.90;;
24421;SDS011;12600;53.326;-6.298;2022-08-01T00:42:21;36.28;;;34.25;;
24421;SDS011;12600;53.326;-6.298;2022-08-01T00:44:50;34.35;;;32.15;;
24421;SDS011;12600;53.326;-6.298;2022-08-01T00:47:19;34.33;;;32.63;;
24421;SDS011;12600;53.326;-6.298;2022-08-01T00:49:48;40.45;;;38.45;;
24421;SDS011;12600;53.326;-6.298;2022-08-01T00:52:18;35.60;;;33.83;;
24421;SDS011;12600;53.326;-6.298;2022-08-01T00:54:49;36.33;;;34.50;;
24421;SDS011;12600;53.326;-6.298;2022-08-01T00:57:19;43.33;;;40.85;;
24421;SDS011;12600;53.326;-6.298;2022-08-01T01:00:09;38.53;;;36.50;;
24421;SDS011;12600;53.326;-6.298;2022-08-01T01:02:40;39.03;;;37.03;;
24421;SDS011;12600;53.326;-6.298;2022-08-01T01:05:10;41.33;;;39.25;;
24421;SDS011;12600;53.326;-6.298;2022-08-01T01:07:40;43.03;;;40.70;;
24421;SDS011;12600;53.326;-6.298;2022-08-01T01:10:20;48.90;;;46.17;;
24421;SDS011;12600;53.326;-6.298;2022-08-01T01:12:59;48.00;;;45.42;;
24421;SDS011;12600;53.326;-6.298;2022-08-01T01:15:36;56.53;;;53.53;;
24421;SDS011;12600;53.326;-6.298;2022-08-01T01:18:13;45.58;;;43.08;;
24421;SDS011;12600;53.326;-6.298;2022-08-01T01:20:51;49.15;;;46.45;;
24421;SDS011;12600;53.326;-6.298;2022-08-01T01:23:45;53.58;;;50.70;;
24421;SDS011;12600;53.326;-6.298;2022-08-01T01:26:36;58.92;;;55.75;;
24421;SDS011;12600;53.326;-6.298;2022-08-01T01:29:16;54.92;;;52.20;;
24421;SDS011;12600;53.326;-6.298;2022-08-01T01:31:49;55.35;;;52.33;;
24421;SDS011;12600;53.326;-6.298;2022-08-01T01:34:31;60.75;;;57.58;;
24421;SDS011;12600;53.326;-6.298;2022-08-01T01:37:04;55.58;;;52.65;;
24421;SDS011;12600;53.326;-6.298;2022-08-01T01:39:39;59.42;;;56.33;;
24421;SDS011;12600;53.326;-6.298;2022-08-01T01:42:14;54.90;;;51.97;;
24421;SDS011;12600;53.326;-6.298;2022-08-01T01:44:47;59.50;;;56.42;;
24421;SDS011;12600;53.326;-6.298;2022-08-01T01:47:18;63.90;;;60.30;;
24421;SDS011;12600;53.326;-6.298;2022-08-01T01:49:48;55.15;;;52.33;;
24421;SDS011;12600;53.326;-6.298;2022-08-01T01:52:20;51.33;;;48.83;;
24421;SDS011;12600;53.326;-6.298;2022-08-01T01:54:52;61.83;;;58.78;;
24421;SDS011;12600;53.326;-6.298;2022-08-01T01:57:23;51.97;;;48.92;;
24421;SDS011;12600;53.326;-6.298;2022-08-01T01:59:55;58.13;;;55.13;;
24421;SDS011;12600;53.326;-6.298;2022-08-01T02:02:26;61.13;;;58.08;;
24421;SDS011;12600;53.326;-6.298;2022-08-01T02:04:56;57.67;;;54.85;;
24421;SDS011;12600;53.326;-6.298;2022-08-01T02:07:26;56.05;;;53.03;;
24421;SDS011;12600;53.326;-6.298;2022-08-01T02:09:57;53.45;;;50.88;;
24421;SDS011;12600;53.326;-6.298;2022-08-01T02:12:29;59.80;;;57.00;;
24421;SDS011;12600;53.326;-6.298;2022-08-01T02:15:02;55.00;;;52.33;;
24421;SDS011;12600;53.326;-6.298;2022-08-01T02:17:34;60.22;;;57.35;;
24421;SDS011;12600;53.326;-6.298;2022-08-01T02:20:13;60.00;;;56.90;;
24421;SDS011;12600;53.326;-6.298;2022-08-01T02:22:46;61.67;;;58.60;;
24421;SDS011;12600;53.326;-6.298;2022-08-01T02:25:20;63.38;;;60.13;;
24421;SDS011;12600;53.326;-6.298;2022-08-01T02:27:55;63.97;;;60.70;;
24421;SDS011;12600;53.326;-6.298;2022-08-01T02:30:33;54.35;;;51.40;;
24421;SDS011;12600;53.326;-6.298;2022-08-01T02:33:05;59.28;;;56.28;;
24421;SDS011;12600;53.326;-6.298;2022-08-01T02:35:42;53.17;;;50.40;;
24421;SDS011;12600;53.326;-6.298;2022-08-01T02:38:38;58.63;;;55.67;;
24421;SDS011;12600;53.326;-6.298;2022-08-01T02:41:11;55.58;;;52.83;;
24421;SDS011;12600;53.326;-6.298;2022-08-01T02:43:52;49.90;;;47.15;;
24421;SDS011;12600;53.326;-6.298;2022-08-01T02:46:28;53.90;;;51.13;;
24421;SDS011;12600;53.326;-6.298;2022-08-01T02:49:03;59.33;;;56.53;;
24421;SDS011;12600;53.326;-6.298;2022-08-01T02:51:37;55.65;;;52.50;;
24421;SDS011;12600;53.326;-6.298;2022-08-01T02:54:09;64.00;;;61.03;;
24421;SDS011;12600;53.326;-6.298;2022-08-01T02:56:39;56.28;;;53.38;;
24421;SDS011;12600;53.326;-6.298;2022-08-01T02:59:10;54.88;;;52.08;;
24421;SDS011;12600;53.326;-6.298;2022-08-01T03:01:49;53.75;;;50.72;;
24421;SDS011;12600;53.326;-6.298;2022-08-01T03:04:23;51.22;;;48.55;;
24421;SDS011;12600;53.326;-6.298;2022-08-01T03:06:53;54.92;;;52.15;;
24421;SDS011;12600;53.326;-6.298;2022-08-01T03:09:25;51.42;;;48.75;;
24421;SDS011;12600;53.326;-6.298;2022-08-01T03:11:59;52.88;;;50.22;;
24421;SDS011;12600;53.326;-6.298;2022-08-01T03:14:33;51.22;;;48.45;;
24421;SDS011;12600;53.326;-6.298;2022-08-01T03:17:09;54.40;;;51.70;;
24421;SDS011;12600;53.326;-6.298;2022-08-01T03:19:40;52.53;;;49.92;;
24421;SDS011;12600;53.326;-6.298;2022-08-01T03:22:12;46.58;;;44.13;;
24421;SDS011;12600;53.326;-6.298;2022-08-01T03:24:44;50.90;;;48.40;;
24421;SDS011;12600;53.326;-6.298;2022-08-01T03:27:20;48.13;;;45.60;;
24421;SDS011;12600;53.326;-6.298;2022-08-01T03:29:51;49.15;;;46.70;;
24421;SDS011;12600;53.326;-6.298;2022-08-01T03:32:26;45.55;;;43.13;;
24421;SDS011;12600;53.326;-6.298;2022-08-01T03:34:56;49.08;;;46.65;;
24421;SDS011;12600;53.326;-6.298;2022-08-01T03:37:26;36.55;;;34.47;;
24421;SDS011;12600;53.326;-6.298;2022-08-01T03:40:02;41.80;;;39.60;;
24421;SDS011;12600;53.326;-6.298;2022-08-01T03:42:37;45.88;;;43.55;;
24421;SDS011;12600;53.326;-6.298;2022-08-01T03:45:19;44.45;;;41.97;;
24421;SDS011;12600;53.326;-6.298;2022-08-01T03:47:54;47.03;;;44.67;;
24421;SDS011;12600;53.326;-6.298;2022-08-01T03:50:28;35.55;;;33.45;;
24421;SDS011;12600;53.326;-6.298;2022-08-01T03:53:01;33.78;;;31.90;;
24421;SDS011;12600;53.326;-6.298;2022-08-01T03:55:32;35.80;;;33.70;;
24421;SDS011;12600;53.326;-6.298;2022-08-01T03:58:04;38.20;;;35.97;;
24421;SDS011;12600;53.326;-6.298;2022-08-01T04:00:36;34.63;;;32.78;;
24421;SDS011;12600;53.326;-6.298;2022-08-01T04:03:08;38.05;;;36.00;;
24421;SDS011;12600;53.326;-6.298;2022-08-01T04:05:40;36.75;;;34.78;;
24421;SDS011;12600;53.326;-6.298;2022-08-01T04:08:10;31.42;;;29.70;;
24421;SDS011;12600;53.326;-6.298;2022-08-01T04:10:39;34.92;;;33.08;;
24421;SDS011;12600;53.326;-6.298;2022-08-01T04:13:09;36.20;;;33.78;;
24421;SDS011;12600;53.326;-6.298;2022-08-01T04:15:38;31.85;;;29.92;;
24421;SDS011;12600;53.326;-6.298;2022-08-01T04:18:09;30.10;;;28.08;;
24421;SDS011;12600;53.326;-6.298;2022-08-01T04:20:38;31.20;;;29.13;;
24421;SDS011;12600;53.326;-6.298;2022-08-01T04:23:08;31.95;;;29.75;;
24421;SDS011;12600;53.326;-6.298;2022-08-01T04:25:38;29.60;;;27.85;;
24421;SDS011;12600;53.326;-6.298;2022-08-01T04:28:09;29.80;;;27.83;;
24421;SDS011;12600;53.326;-6.298;2022-08-01T04:30:43;27.10;;;25.30;;
24421;SDS011;12600;53.326;-6.298;2022-08-01T04:33:17;30.20;;;28.42;;
24421;SDS011;12600;53.326;-6.298;2022-08-01T04:35:48;31.23;;;29.42;;
24421;SDS011;12600;53.326;-6.298;2022-08-01T04:38:30;29.17;;;27.17;;
24421;SDS011;12600;53.326;-6.298;2022-08-01T04:41:04;28.65;;;26.85;;
24421;SDS011;12600;53.326;-6.298;2022-08-01T04:43:35;27.20;;;25.43;;
24421;SDS011;12600;53.326;-6.298;2022-08-01T04:46:05;28.88;;;27.02;;
24421;SDS011;12600;53.326;-6.298;2022-08-01T04:48:39;27.00;;;25.13;;
24421;SDS011;12600;53.326;-6.298;2022-08-01T04:51:12;27.20;;;25.63;;
24421;SDS011;12600;53.326;-6.298;2022-08-01T04:53:43;27.95;;;26.35;;
24421;SDS011;12600;53.326;-6.298;2022-08-01T04:56:13;26.92;;;25.35;;
24421;SDS011;12600;53.326;-6.298;2022-08-01T04:58:43;27.08;;;25.02;;
24421;SDS011;12600;53.326;-6.298;2022-08-01T05:01:47;27.58;;;25.92;;
24421;SDS011;12600;53.326;-6.298;2022-08-01T05:04:22;27.27;;;25.52;;
24421;SDS011;12600;53.326;-6.298;2022-08-01T05:06:51;24.60;;;23.08;;
24421;SDS011;12600;53.326;-6.298;2022-08-01T05:09:21;24.30;;;22.70;;
24421;SDS011;12600;53.326;-6.298;2022-08-01T05:11:56;26.55;;;24.48;;
24421;SDS011;12600;53.326;-6.298;2022-08-01T05:14:27;24.05;;;22.60;;
24421;SDS011;12600;53.326;-6.298;2022-08-01T05:16:59;26.15;;;24.50;;
24421;SDS011;12600;53.326;-6.298;2022-08-01T05:19:33;25.90;;;24.25;;
24421;SDS011;12600;53.326;-6.298;2022-08-01T05:22:04;24.73;;;23.10;;
24421;SDS011;12600;53.326;-6.298;2022-08-01T05:24:36;22.65;;;20.85;;
24421;SDS011;12600;53.326;-6.298;2022-08-01T05:27:08;24.42;;;22.75;;
24421;SDS011;12600;53.326;-6.298;2022-08-01T05:29:41;26.85;;;24.50;;
24421;SDS011;12600;53.326;-6.298;2022-08-01T05:32:14;25.38;;;23.38;;
24421;SDS011;12600;53.326;-6.298;2022-08-01T05:34:49;27.15;;;25.33;;
24421;SDS011;12600;53.326;-6.298;2022-08-01T05:37:19;25.98;;;24.38;;
24421;SDS011;12600;53.326;-6.298;2022-08-01T05:39:48;24.65;;;23.15;;
24421;SDS011;12600;53.326;-6.298;2022-08-01T05:42:17;26.10;;;24.38;;
24421;SDS011;12600;53.326;-6.298;2022-08-01T05:44:46;26.65;;;24.73;;
24421;SDS011;12600;53.326;-6.298;2022-08-01T05:47:17;26.30;;;24.50;;
24421;SDS011;12600;53.326;-6.298;2022-08-01T05:49:46;27.42;;;25.55;;
24421;SDS011;12600;53.326;-6.298;2022-08-01T05:52:17;29.83;;;26.88;;
24421;SDS011;12600;53.326;-6.298;2022-08-01T05:54:46;29.40;;;27.25;;
24421;SDS011;12600;53.326;-6.298;2022-08-01T05:57:16;27.83;;;25.98;;
24421;SDS011;12600;53.326;-6.298;2022-08-01T05:59:46;28.33;;;26.58;;
24421;SDS011;12600;53.326;-6.298;2022-08-01T06:02:15;26.45;;;24.50;;
24421;SDS011;12600;53.326;-6.298;2022-08-01T06:04:45;29.15;;;27.25;;
24421;SDS011;12600;53.326;-6.298;2022-08-01T06:07:14;27.63;;;25.77;;
24421;SDS011;12600;53.326;-6.298;2022-08-01T06:09:44;28.65;;;26.90;;
24421;SDS011;12600;53.326;-6.298;2022-08-01T06:12:14;27.20;;;25.45;;
24421;SDS011;12600;53.326;-6.298;2022-08-01T06:14:43;26.83;;;25.02;;
24421;SDS011;12600;53.326;-6.298;2022-08-01T06:17:12;28.83;;;26.83;;
24421;SDS011;12600;53.326;-6.298;2022-08-01T06:19:42;31.25;;;29.35;;
24421;SDS011;12600;53.326;-6.298;2022-08-01T06:22:12;29.00;;;27.02;;
24421;SDS011;12600;53.326;-6.298;2022-08-01T06:24:41;30.88;;;28.67;;
24421;SDS011;12600;53.326;-6.298;2022-08-01T06:27:12;31.10;;;28.85;;
24421;SDS011;12600;53.326;-6.298;2022-08-01T06:29:48;31.98;;;29.75;;
24421;SDS011;12600;53.326;-6.298;2022-08-01T06:32:20;32.10;;;29.85;;
24421;SDS011;12600;53.326;-6.298;2022-08-01T06:34:54;32.50;;;30.60;;
24421;SDS011;12600;53.326;-6.298;2022-08-01T06:37:23;35.35;;;33.05;;
24421;SDS011;12600;53.326;-6.298;2022-08-01T06:39:59;31.75;;;29.73;;
24421;SDS011;12600;53.326;-6.298;2022-08-01T06:42:31;34.40;;;32.35;;
24421;SDS011;12600;53.326;-6.298;2022-08-01T06:47:31;33.80;;;31.60;;
24421;SDS011;12600;53.326;-6.298;2022-08-01T06:50:01;35.15;;;33.05;;
24421;SDS011;12600;53.326;-6.298;2022-08-01T06:52:35;35.88;;;33.58;;
24421;SDS011;12600;53.326;-6.298;2022-08-01T06:55:05;37.33;;;34.88;;
24421;SDS011;12600;53.326;-6.298;2022-08-01T06:57:39;40.17;;;37.83;;
24421;SDS011;12600;53.326;-6.298;2022-08-01T07:00:15;57.97;;;54.78;;
24421;SDS011;12600;53.326;-6.298;2022-08-01T07:02:49;63.17;;;59.83;;
24421;SDS011;12600;53.326;-6.298;2022-08-01T07:05:19;57.60;;;54.55;;
24421;SDS011;12600;53.326;-6.298;2022-08-01T07:07:49;64.40;;;60.80;;
24421;SDS011;12600;53.326;-6.298;2022-08-01T07:10:19;61.38;;;58.10;;
24421;SDS011;12600;53.326;-6.298;2022-08-01T07:12:49;62.20;;;58.90;;
24421;SDS011;12600;53.326;-6.298;2022-08-01T07:15:19;62.88;;;59.75;;
24421;SDS011;12600;53.326;-6.298;2022-08-01T07:17:53;62.08;;;58.75;;
24421;SDS011;12600;53.326;-6.298;2022-08-01T07:20:24;54.40;;;51.33;;
24421;SDS011;12600;53.326;-6.298;2022-08-01T07:22:53;48.90;;;46.25;;
24421;SDS011;12600;53.326;-6.298;2022-08-01T07:25:23;42.55;;;39.97;;
24421;SDS011;12600;53.326;-6.298;2022-08-01T07:27:53;38.75;;;36.53;;
24421;SDS011;12600;53.326;-6.298;2022-08-01T07:30:23;33.40;;;31.42;;
24421;SDS011;12600;53.326;-6.298;2022-08-01T07:32:53;34.05;;;32.15;;
24421;SDS011;12600;53.326;-6.298;2022-08-01T07:35:22;36.17;;;34.05;;
24421;SDS011;12600;53.326;-6.298;2022-08-01T07:37:52;38.72;;;36.35;;
24421;SDS011;12600;53.326;-6.298;2022-08-01T07:40:21;36.05;;;33.95;;
24421;SDS011;12600;53.326;-6.298;2022-08-01T07:42:50;37.20;;;35.05;;
24421;SDS011;12600;53.326;-6.298;2022-08-01T07:45:21;42.13;;;39.95;;
24421;SDS011;12600;53.326;-6.298;2022-08-01T07:47:50;40.15;;;38.00;;
24421;SDS011;12600;53.326;-6.298;2022-08-01T07:50:20;48.50;;;45.80;;
24421;SDS011;12600;53.326;-6.298;2022-08-01T07:52:49;52.70;;;49.83;;
24421;SDS011;12600;53.326;-6.298;2022-08-01T07:55:18;46.30;;;43.95;;
24421;SDS011;12600;53.326;-6.298;2022-08-01T07:57:48;60.35;;;57.40;;
24421;SDS011;12600;53.326;-6.298;2022-08-01T08:00:17;53.00;;;50.20;;
24421;SDS011;12600;53.326;-6.298;2022-08-01T08:02:48;55.15;;;52.05;;
24421;SDS011;12600;53.326;-6.298;2022-08-01T08:05:17;57.08;;;54.28;;
24421;SDS011;12600;53.326;-6.298;2022-08-01T08:08:07;43.50;;;41.17;;
24421;SDS011;12600;53.326;-6.298;2022-08-01T08:10:38;46.63;;;44.33;;
24421;SDS011;12600;53.326;-6.298;2022-08-01T08:13:07;46.38;;;43.97;;
24421;SDS011;12600;53.326;-6.298;2022-08-01T08:15:37;50.75;;;48.00;;
24421;SDS011;12600;53.326;-6.298;2022-08-01T08:18:08;58.90;;;56.00;;
24421;SDS011;12600;53.326;-6.298;2022-08-01T08:20:37;68.72;;;65.35;;
24421;SDS011;12600;53.326;-6.298;2022-08-01T08:23:06;86.05;;;82.00;;
24421;SDS011;12600;53.326;-6.298;2022-08-01T08:26:09;85.15;;;81.07;;
24421;SDS011;12600;53.326;-6.298;2022-08-01T08:28:39;49.92;;;47.28;;
24421;SDS011;12600;53.326;-6.298;2022-08-01T08:31:08;100.43;;;95.68;;
24421;SDS011;12600;53.326;-6.298;2022-08-01T08:33:53;87.80;;;83.55;;
24421;SDS011;12600;53.326;-6.298;2022-08-01T08:36:22;101.60;;;96.93;;
24421;SDS011;12600;53.326;-6.298;2022-08-01T08:38:57;119.95;;;114.55;;
24421;SDS011;12600;53.326;-6.298;2022-08-01T08:41:28;100.05;;;95.38;;
24421;SDS011;12600;53.326;-6.298;2022-08-01T08:44:04;127.95;;;122.03;;
24421;SDS011;12600;53.326;-6.298;2022-08-01T08:46:40;151.98;;;144.80;;
24421;SDS011;12600;53.326;-6.298;2022-08-01T08:49:15;130.88;;;124.63;;
24421;SDS011;12600;53.326;-6.298;2022-08-01T08:51:47;156.80;;;149.73;;
24421;SDS011;12600;53.326;-6.298;2022-08-01T08:54:19;157.82;;;150.60;;
24421;SDS011;12600;53.326;-6.298;2022-08-01T08:56:58;181.73;;;173.20;;
24421;SDS011;12600;53.326;-6.298;2022-08-01T08:59:28;181.75;;;173.25;;
24421;SDS011;12600;53.326;-6.298;2022-08-01T09:01:58;145.15;;;138.27;;
24421;SDS011;12600;53.326;-6.298;2022-08-01T09:04:29;164.05;;;156.43;;
24421;SDS011;12600;53.326;-6.298;2022-08-01T09:06:58;166.27;;;158.55;;
24421;SDS011;12600;53.326;-6.298;2022-08-01T09:09:27;176.35;;;168.07;;
24421;SDS011;12600;53.326;-6.298;2022-08-01T09:11:58;156.90;;;149.32;;
24421;SDS011;12600;53.326;-6.298;2022-08-01T09:14:27;188.30;;;179.48;;
24421;SDS011;12600;53.326;-6.298;2022-08-01T09:17:00;170.88;;;162.93;;
24421;SDS011;12600;53.326;-6.298;2022-08-01T09:19:39;191.25;;;182.13;;
24421;SDS011;12600;53.326;-6.298;2022-08-01T09:22:11;174.27;;;165.95;;
24421;SDS011;12600;53.326;-6.298;2022-08-01T09:24:56;176.30;;;167.80;;
24421;SDS011;12600;53.326;-6.298;2022-08-01T09:27:29;157.63;;;150.15;;
24421;SDS011;12600;53.326;-6.298;2022-08-01T09:30:07;183.40;;;175.07;;
24421;SDS011;12600;53.326;-6.298;2022-08-01T09:32:55;174.93;;;166.68;;
24421;SDS011;12600;53.326;-6.298;2022-08-01T09:35:34;195.43;;;186.60;;
24421;SDS011;12600;53.326;-6.298;2022-08-01T09:38:13;189.60;;;181.00;;
24421;SDS011;12600;53.326;-6.298;2022-08-01T09:40:49;192.50;;;183.57;;
24421;SDS011;12600;53.326;-6.298;2022-08-01T09:43:22;186.50;;;177.93;;
24421;SDS011;12600;53.326;-6.298;2022-08-01T09:45:53;201.13;;;191.82;;
24421;SDS011;12600;53.326;-6.298;2022-08-01T09:48:24;205.57;;;196.27;;
24421;SDS011;12600;53.326;-6.298;2022-08-01T09:50:58;187.15;;;178.30;;
24421;SDS011;12600;53.326;-6.298;2022-08-01T09:53:43;194.45;;;185.45;;
24421;SDS011;12600;53.326;-6.298;2022-08-01T09:56:21;205.95;;;196.45;;
24421;SDS011;12600;53.326;-6.298;2022-08-01T09:58:51;221.32;;;211.30;;
24421;SDS011;12600;53.326;-6.298;2022-08-01T10:01:27;202.93;;;193.77;;
24421;SDS011;12600;53.326;-6.298;2022-08-01T10:04:11;187.63;;;178.82;;
24421;SDS011;12600;53.326;-6.298;2022-08-01T10:06:46;158.65;;;151.35;;
24421;SDS011;12600;53.326;-6.298;2022-08-01T10:09:26;192.32;;;183.55;;
24421;SDS011;12600;53.326;-6.298;2022-08-01T10:12:06;132.18;;;126.03;;
24421;SDS011;12600;53.326;-6.298;2022-08-01T10:14:42;146.25;;;139.32;;
24421;SDS011;12600;53.326;-6.298;2022-08-01T10:17:17;132.70;;;126.68;;
24421;SDS011;12600;53.326;-6.298;2022-08-01T10:22:25;111.53;;;106.32;;
24421;SDS011;12600;53.326;-6.298;2022-08-01T10:25:02;118.03;;;112.68;;
24421;SDS011;12600;53.326;-6.298;2022-08-01T10:27:34;124.97;;;119.03;;
24421;SDS011;12600;53.326;-6.298;2022-08-01T10:30:07;136.15;;;129.65;;
24421;SDS011;12600;53.326;-6.298;2022-08-01T10:32:49;142.25;;;135.63;;
24421;SDS011;12600;53.326;-6.298;2022-08-01T10:35:21;174.45;;;166.57;;
24421;SDS011;12600;53.326;-6.298;2022-08-01T10:38:12;153.13;;;146.02;;
24421;SDS011;12600;53.326;-6.298;2022-08-01T10:40:43;145.65;;;138.90;;
24421;SDS011;12600;53.326;-6.298;2022-08-01T10:43:13;160.07;;;152.55;;
24421;SDS011;12600;53.326;-6.298;2022-08-01T10:45:48;123.03;;;116.97;;
24421;SDS011;12600;53.326;-6.298;2022-08-01T10:48:20;100.40;;;95.65;;
24421;SDS011;12600;53.326;-6.298;2022-08-01T10:50:57;120.00;;;114.45;;
24421;SDS011;12600;53.326;-6.298;2022-08-01T10:53:30;94.85;;;90.35;;
24421;SDS011;12600;53.326;-6.298;2022-08-01T10:56:09;83.57;;;79.57;;
24421;SDS011;12600;53.326;-6.298;2022-08-01T10:58:43;93.22;;;88.90;;
24421;SDS011;12600;53.326;-6.298;2022-08-01T11:01:24;113.93;;;108.57;;
24421;SDS011;12600;53.326;-6.298;2022-08-01T11:03:56;106.55;;;101.57;;
24421;SDS011;12600;53.326;-6.298;2022-08-01T11:06:40;125.85;;;119.97;;
24421;SDS011;12600;53.326;-6.298;2022-08-01T11:09:22;112.82;;;107.57;;
24421;SDS011;12600;53.326;-6.298;2022-08-01T11:12:05;121.07;;;115.38;;
24421;SDS011;12600;53.326;-6.298;2022-08-01T11:18:00;94.18;;;89.85;;
24421;SDS011;12600;53.326;-6.298;2022-08-01T11:20:32;103.78;;;98.95;;
24421;SDS011;12600;53.326;-6.298;2022-08-01T11:23:17;98.57;;;94.03;;
24421;SDS011;12600;53.326;-6.298;2022-08-01T11:26:11;97.50;;;92.85;;
24421;SDS011;12600;53.326;-6.298;2022-08-01T11:31:48;95.65;;;91.07;;
24421;SDS011;12600;53.326;-6.298;2022-08-01T11:34:19;117.30;;;111.95;;
24421;SDS011;12600;53.326;-6.298;2022-08-01T11:37:22;99.80;;;95.18;;
24421;SDS011;12600;53.326;-6.298;2022-08-01T11:40:15;96.35;;;91.80;;
24421;SDS011;12600;53.326;-6.298;2022-08-01T11:45:49;83.38;;;79.30;;
24421;SDS011;12600;53.326;-6.298;2022-08-01T11:48:21;111.93;;;106.50;;
24421;SDS011;12600;53.326;-6.298;2022-08-01T11:50:54;84.78;;;80.57;;
24421;SDS011;12600;53.326;-6.298;2022-08-01T11:53:28;97.10;;;92.32;;
24421;SDS011;12600;53.326;-6.298;2022-08-01T11:56:02;110.07;;;104.55;;
24421;SDS011;12600;53.326;-6.298;2022-08-01T11:58:34;87.82;;;83.47;;
24421;SDS011;12600;53.326;-6.298;2022-08-01T12:01:04;89.75;;;85.35;;
24421;SDS011;12600;53.326;-6.298;2022-08-01T12:03:34;102.88;;;97.80;;
24421;SDS011;12600;53.326;-6.298;2022-08-01T12:06:04;113.05;;;107.65;;
24421;SDS011;12600;53.326;-6.298;2022-08-01T12:08:35;112.35;;;106.82;;
24421;SDS011;12600;53.326;-6.298;2022-08-01T12:11:04;92.32;;;87.78;;
24421;SDS011;12600;53.326;-6.298;2022-08-01T12:13:41;104.17;;;99.07;;
24421;SDS011;12600;53.326;-6.298;2022-08-01T12:16:12;92.65;;;88.22;;
24421;SDS011;12600;53.326;-6.298;2022-08-01T12:18:41;75.93;;;72.15;;
24421;SDS011;12600;53.326;-6.298;2022-08-01T12:21:11;99.65;;;94.97;;
24421;SDS011;12600;53.326;-6.298;2022-08-01T12:23:41;105.78;;;100.68;;
24421;SDS011;12600;53.326;-6.298;2022-08-01T12:26:10;105.72;;;100.32;;
24421;SDS011;12600;53.326;-6.298;2022-08-01T12:28:59;90.38;;;85.90;;
24421;SDS011;12600;53.326;-6.298;2022-08-01T12:31:33;94.45;;;89.97;;
24421;SDS011;12600;53.326;-6.298;2022-08-01T12:36:56;82.32;;;78.50;;
24421;SDS011;12600;53.326;-6.298;2022-08-01T12:39:31;88.75;;;84.57;;
24421;SDS011;12600;53.326;-6.298;2022-08-01T12:42:01;92.97;;;88.70;;
24421;SDS011;12600;53.326;-6.298;2022-08-01T12:44:39;83.97;;;79.90;;
24421;SDS011;12600;53.326;-6.298;2022-08-01T12:47:11;109.38;;;103.80;;
24421;SDS011;12600;53.326;-6.298;2022-08-01T12:49:42;91.88;;;87.50;;
24421;SDS011;12600;53.326;-6.298;2022-08-01T12:52:12;88.43;;;84.03;;
24421;SDS011;12600;53.326;-6.298;2022-08-01T12:55:03;71.27;;;67.67;;
24421;SDS011;12600;53.326;-6.298;2022-08-01T12:57:42;110.50;;;104.53;;
24421;SDS011;12600;53.326;-6.298;2022-08-01T13:00:19;96.60;;;92.07;;
24421;SDS011;12600;53.326;-6.298;2022-08-01T13:03:02;105.30;;;100.53;;
24421;SDS011;12600;53.326;-6.298;2022-08-01T13:05:43;81.30;;;77.55;;
24421;SDS011;12600;53.326;-6.298;2022-08-01T13:08:14;101.63;;;97.03;;
24421;SDS011;12600;53.326;-6.298;2022-08-01T13:10:45;103.88;;;99.13;;
24421;SDS011;12600;53.326;-6.298;2022-08-01T13:13:16;108.60;;;103.72;;
24421;SDS011;12600;53.326;-6.298;2022-08-01T13:16:03;108.45;;;103.07;;
24421;SDS011;12600;53.326;-6.298;2022-08-01T13:18:47;90.63;;;86.45;;
24421;SDS011;12600;53.326;-6.298;2022-08-01T13:21:18;86.40;;;82.35;;
24421;SDS011;12600;53.326;-6.298;2022-08-01T13:24:00;86.63;;;82.53;;
24421;SDS011;12600;53.326;-6.298;2022-08-01T13:29:09;110.35;;;105.00;;
24421;SDS011;12600;53.326;-6.298;2022-08-01T13:31:42;91.07;;;86.63;;
24421;SDS011;12600;53.326;-6.298;2022-08-01T13:34:14;120.95;;;114.30;;
24421;SDS011;12600;53.326;-6.298;2022-08-01T13:36:44;116.00;;;109.75;;
24421;SDS011;12600;53.326;-6.298;2022-08-01T13:39:15;105.33;;;100.30;;
24421;SDS011;12600;53.326;-6.298;2022-08-01T13:42:02;116.05;;;110.20;;
24421;SDS011;12600;53.326;-6.298;2022-08-01T13:44:33;101.32;;;96.32;;
24421;SDS011;12600;53.326;-6.298;2022-08-01T13:47:03;102.55;;;97.55;;
24421;SDS011;12600;53.326;-6.298;2022-08-01T13:49:43;103.50;;;97.97;;
24421;SDS011;12600;53.326;-6.298;2022-08-01T13:52:12;106.20;;;100.78;;
24421;SDS011;12600;53.326;-6.298;2022-08-01T13:54:42;95.05;;;90.45;;
24421;SDS011;12600;53.326;-6.298;2022-08-01T13:57:11;129.00;;;122.28;;
24421;SDS011;12600;53.326;-6.298;2022-08-01T13:59:41;118.13;;;112.00;;
24421;SDS011;12600;53.326;-6.298;2022-08-01T14:02:12;104.90;;;99.40;;
24421;SDS011;12600;53.326;-6.298;2022-08-01T14:04:41;107.13;;;101.78;;
24421;SDS011;12600;53.326;-6.298;2022-08-01T14:07:11;109.70;;;104.43;;
24421;SDS011;12600;53.326;-6.298;2022-08-01T14:09:41;108.22;;;102.63;;
24421;SDS011;12600;53.326;-6.298;2022-08-01T14:12:37;108.72;;;103.40;;
24421;SDS011;12600;53.326;-6.298;2022-08-01T14:15:11;105.22;;;99.97;;
24421;SDS011;12600;53.326;-6.298;2022-08-01T14:18:02;102.60;;;97.47;;
24421;SDS011;12600;53.326;-6.298;2022-08-01T14:20:33;100.43;;;95.47;;
24421;SDS011;12600;53.326;-6.298;2022-08-01T14:23:03;100.97;;;96.18;;
24421;SDS011;12600;53.326;-6.298;2022-08-01T14:25:35;115.75;;;109.93;;
24421;SDS011;12600;53.326;-6.298;2022-08-01T14:28:25;149.80;;;141.57;;
24421;SDS011;12600;53.326;-6.298;2022-08-01T14:30:57;126.68;;;119.85;;
24421;SDS011;12600;53.326;-6.298;2022-08-01T14:33:28;155.15;;;146.52;;
24421;SDS011;12600;53.326;-6.298;2022-08-01T14:36:00;102.80;;;97.57;;
24421;SDS011;12600;53.326;-6.298;2022-08-01T14:38:49;101.30;;;96.40;;
24421;SDS011;12600;53.326;-6.298;2022-08-01T14:41:19;106.72;;;101.53;;
24421;SDS011;12600;53.326;-6.298;2022-08-01T14:43:48;141.93;;;133.57;;
24421;SDS011;12600;53.326;-6.298;2022-08-01T14:46:17;107.60;;;102.35;;
24421;SDS011;12600;53.326;-6.298;2022-08-01T14:48:48;116.53;;;110.40;;
24421;SDS011;12600;53.326;-6.298;2022-08-01T14:51:17;106.47;;;101.38;;
24421;SDS011;12600;53.326;-6.298;2022-08-01T14:53:47;108.03;;;102.72;;
24421;SDS011;12600;53.326;-6.298;2022-08-01T14:56:19;99.65;;;94.82;;
24421;SDS011;12600;53.326;-6.298;2022-08-01T14:58:48;99.35;;;94.60;;